createdAt,value
2017-09-17T00:04:20.874Z,47.2
2017-09-17T00:15:18.916Z,47
2017-09-17T00:26:19.296Z,47.1
2017-09-17T00:37:18.590Z,47.3
2017-09-17T00:48:19.015Z,47.4
2017-09-17T00:59:19.956Z,47.3
2017-09-17T01:10:18.775Z,46.8
2017-09-17T01:21:19.221Z,47.1
2017-09-17T01:32:18.921Z,47.8
2017-09-17T01:43:18.759Z,47
2017-09-17T01:54:20.995Z,47
2017-09-17T02:05:18.864Z,46.7
2017-09-17T02:16:18.667Z,47.2
2017-09-17T02:27:19.080Z,47.5
2017-09-17T02:38:19.141Z,47.3
2017-09-17T02:49:20.138Z,47.4
2017-09-17T03:00:19.944Z,47.4
2017-09-17T03:11:18.931Z,47.7
2017-09-17T03:22:19.089Z,47.3
2017-09-17T03:33:18.459Z,47.3
2017-09-17T03:44:20.064Z,46.9
2017-09-17T03:55:18.734Z,47.4
2017-09-17T04:06:19.333Z,47.2
2017-09-17T04:17:19.168Z,47.2
2017-09-17T04:28:19.143Z,46.7
2017-09-17T04:39:21.732Z,46.7
2017-09-17T04:50:20.021Z,46.5
2017-09-17T05:01:19.224Z,46.3
2017-09-17T05:12:19.615Z,46.9
2017-09-17T05:23:19.887Z,46.1
2017-09-17T05:34:20.855Z,46.4
2017-09-17T05:45:18.955Z,46.1
2017-09-17T05:56:18.573Z,46.3
2017-09-17T06:07:19.369Z,46.2
2017-09-17T06:18:18.746Z,46.4
2017-09-17T06:29:21.079Z,46.2
2017-09-17T06:40:19.233Z,46.8
2017-09-17T06:51:19.792Z,47.5
2017-09-17T07:02:19.358Z,47.3
2017-09-17T07:13:19.750Z,48.3
2017-09-17T07:24:20.812Z,48.4
2017-09-17T07:35:18.829Z,48.1
2017-09-17T07:46:19.425Z,48.5
2017-09-17T07:57:18.542Z,48.8
2017-09-17T08:08:18.492Z,49.3
2017-09-17T08:19:21.155Z,49.1
2017-09-17T08:30:19.441Z,49.3
2017-09-17T08:41:19.206Z,49.5
2017-09-17T08:52:19.296Z,50.2
2017-09-17T09:03:19.412Z,45.7
2017-09-17T09:14:21.336Z,45.3
2017-09-17T09:25:19.502Z,45.4
2017-09-17T09:36:19.461Z,44.6
2017-09-17T09:47:18.832Z,44.5
2017-09-17T09:58:19.502Z,43.6
2017-09-17T10:09:22.541Z,44.8
2017-09-17T10:20:18.914Z,46
2017-09-17T10:31:19.434Z,46.3
2017-09-17T10:42:18.929Z,45.9
2017-09-17T10:53:19.314Z,46.6
2017-09-17T11:04:21.666Z,46.9
2017-09-17T11:15:18.380Z,47.7
2017-09-17T11:26:18.955Z,47.9
2017-09-17T11:37:19.105Z,47.9
2017-09-17T11:48:19.639Z,48.2
2017-09-17T11:59:21.587Z,48.7
2017-09-17T12:10:18.725Z,48.4
2017-09-17T12:21:19.247Z,48.5
2017-09-17T12:32:19.679Z,49.1
2017-09-17T12:43:18.887Z,48.7
2017-09-17T12:54:20.153Z,48.9
2017-09-17T13:05:19.742Z,48.7
2017-09-17T13:16:19.597Z,49.1
2017-09-17T13:27:18.750Z,49.7
2017-09-17T13:38:19.317Z,48.8
2017-09-17T13:49:20.695Z,48.7
2017-09-17T14:00:19.367Z,48.6
2017-09-17T14:11:19.612Z,48.9
2017-09-17T14:22:18.891Z,48.9
2017-09-17T14:33:18.844Z,48.8
2017-09-17T14:44:20.992Z,48.9
2017-09-17T14:55:18.900Z,48.4
2017-09-17T15:06:20.015Z,49.1
2017-09-17T15:17:18.970Z,49
2017-09-17T15:28:19.453Z,49
2017-09-17T15:39:20.556Z,49
2017-09-17T15:50:19.148Z,49
2017-09-17T16:01:19.244Z,49.5
2017-09-17T16:12:19.058Z,48.7
2017-09-17T16:23:18.920Z,49.1
2017-09-17T16:34:20.694Z,48.8
2017-09-17T16:45:18.809Z,48.2
2017-09-17T16:56:19.204Z,48.1
2017-09-17T17:07:18.674Z,47.6
2017-09-17T17:18:18.990Z,47.6
2017-09-17T17:29:20.701Z,47.5
2017-09-17T17:40:19.374Z,47.5
2017-09-17T17:51:19.261Z,47.2
2017-09-17T18:02:19.260Z,47.2
2017-09-17T18:13:19.326Z,47.3
2017-09-17T18:24:20.563Z,47.2
2017-09-17T18:35:19.379Z,46.9
2017-09-17T18:46:19.084Z,46.5
2017-09-17T18:57:18.785Z,43.1
2017-09-17T19:08:18.664Z,42.9
2017-09-17T19:19:21.627Z,42
2017-09-17T19:30:19.541Z,41
2017-09-17T19:41:19.225Z,40.2
2017-09-17T19:52:19.247Z,39.1
2017-09-17T20:03:18.872Z,38.4
2017-09-17T20:14:20.363Z,39.1
2017-09-17T20:25:19.212Z,41.2
2017-09-17T20:36:19.158Z,41.1
2017-09-17T20:47:19.263Z,42.4
2017-09-17T20:58:18.135Z,47.1
2017-09-17T21:09:20.864Z,42.6
2017-09-17T21:20:20.274Z,43.3
2017-09-17T21:31:19.453Z,43.3
2017-09-17T21:42:18.526Z,43.6
2017-09-17T21:53:18.510Z,43.6
2017-09-17T22:04:20.696Z,43.4
2017-09-17T22:15:18.791Z,44
2017-09-17T22:26:19.125Z,43.9
2017-09-17T22:37:19.391Z,44.4
2017-09-17T22:48:18.601Z,44
2017-09-17T22:59:20.749Z,43.9
2017-09-17T23:10:19.018Z,43.9
2017-09-17T23:21:18.801Z,42.6
2017-09-17T23:32:19.465Z,40.7
2017-09-17T23:43:19.112Z,40.1
2017-09-17T23:54:21.334Z,39.2
